createdAt,value
2018-09-18T00:01:09.403Z,84.60
2018-09-18T00:03:36.447Z,86.30
2018-09-18T00:06:03.636Z,87.30
2018-09-18T00:10:57.796Z,88.30
2018-09-18T00:13:24.777Z,89.20
2018-09-18T00:18:18.920Z,87.00
2018-09-18T00:20:45.923Z,87.80
2018-09-18T00:23:12.955Z,86.90
2018-09-18T00:25:39.993Z,85.50
2018-09-18T00:30:45.531Z,85.50
2018-09-18T00:33:12.535Z,86.90
2018-09-18T00:35:39.541Z,86.80
2018-09-18T00:38:06.598Z,85.60
2018-09-18T00:40:33.598Z,86.90
2018-09-18T00:43:00.602Z,88.40
2018-09-18T00:45:28.612Z,87.40
2018-09-18T00:47:55.628Z,87.30
2018-09-18T00:50:22.630Z,87.90
2018-09-18T00:52:49.681Z,88.90
2018-09-18T00:55:16.703Z,89.60
2018-09-18T00:57:44.572Z,90.80
2018-09-18T01:00:11.628Z,89.40
2018-09-18T01:02:38.617Z,88.80
2018-09-18T01:05:05.640Z,87.60
2018-09-18T01:10:00.618Z,89.60
2018-09-18T01:12:27.646Z,87.30
2018-09-18T01:14:54.782Z,87.90
2018-09-18T01:17:22.623Z,89.00
2018-09-18T01:19:50.374Z,88.40
2018-09-18T01:24:44.513Z,91.70
2018-09-18T01:27:11.542Z,91.00
2018-09-18T01:29:39.553Z,91.30
2018-09-18T01:32:06.577Z,92.20
2018-09-18T01:34:34.409Z,92.90
2018-09-18T01:37:02.294Z,92.30
2018-09-18T01:39:29.308Z,91.70
2018-09-18T01:41:56.344Z,92.10
2018-09-18T01:44:23.389Z,91.20
2018-09-18T01:51:56.908Z,89.30
2018-09-18T01:54:24.859Z,89.50
2018-09-18T01:56:51.879Z,91.90
2018-09-18T01:59:18.903Z,91.30
2018-09-18T02:01:45.916Z,93.40
2018-09-18T02:04:12.918Z,92.10
2018-09-18T02:06:39.986Z,92.60
2018-09-18T02:09:07.003Z,93.70
2018-09-18T02:11:34.025Z,94.60
2018-09-18T02:14:01.072Z,93.10
2018-09-18T02:16:28.110Z,94.50
2018-09-18T02:18:55.124Z,93.10
2018-09-18T02:21:22.175Z,92.30
2018-09-18T02:23:49.187Z,91.80
2018-09-18T02:26:16.210Z,91.40
2018-09-18T02:28:43.271Z,90.80
2018-09-18T02:31:10.272Z,90.60
2018-09-18T02:36:04.395Z,93.70
2018-09-18T02:38:31.408Z,96.10
2018-09-18T02:43:25.557Z,97.60
2018-09-18T02:45:52.568Z,97.80
2018-09-18T02:48:20.426Z,97.70
2018-09-18T02:50:47.483Z,97.90
2018-09-18T02:53:14.489Z,97.90
2018-09-18T02:55:41.503Z,98.30
2018-09-18T02:58:08.541Z,99.00
2018-09-18T03:00:37.012Z,99.10
2018-09-18T03:03:04.040Z,99.00
2018-09-18T03:05:31.928Z,99.10
2018-09-18T03:07:58.939Z,99.10
2018-09-18T03:13:06.472Z,97.00
2018-09-18T03:15:34.365Z,96.60
2018-09-18T03:18:01.751Z,96.50
2018-09-18T03:22:55.903Z,93.90
2018-09-18T03:25:24.055Z,94.80
2018-09-18T03:27:51.278Z,95.10
2018-09-18T03:30:18.945Z,94.80
2018-09-18T03:32:47.317Z,95.10
2018-09-18T03:35:14.379Z,96.50
2018-09-18T03:37:42.335Z,97.00
2018-09-18T03:42:37.448Z,95.50
2018-09-18T03:45:04.469Z,96.10
2018-09-18T03:47:32.433Z,96.20
2018-09-18T03:49:59.510Z,97.80
2018-09-18T03:52:27.494Z,99.40
2018-09-18T03:54:55.455Z,99.70
2018-09-18T03:57:22.628Z,99.60
2018-09-18T03:59:49.550Z,98.90
2018-09-18T04:02:16.577Z,98.50
2018-09-18T04:09:37.835Z,99.40
2018-09-18T04:12:04.877Z,99.90
2018-09-18T04:14:32.836Z,99.80
2018-09-18T04:16:59.864Z,99.90
2018-09-18T04:19:26.934Z,99.90
2018-09-18T04:21:54.004Z,99.90
2018-09-18T04:24:21.030Z,99.90
2018-09-18T04:26:48.879Z,99.50
2018-09-18T04:32:02.010Z,97.90
2018-09-18T04:34:29.015Z,97.30
2018-09-18T04:36:56.015Z,96.50
2018-09-18T04:41:50.986Z,94.70
2018-09-18T04:44:18.000Z,95.50
2018-09-18T04:46:45.057Z,95.00
2018-09-18T04:49:12.083Z,94.60
2018-09-18T04:51:39.109Z,94.20
2018-09-18T04:54:06.177Z,94.50
2018-09-18T04:56:33.183Z,95.30
2018-09-18T05:01:27.331Z,95.60
2018-09-18T05:03:54.329Z,97.50
2018-09-18T05:08:48.526Z,97.80
2018-09-18T05:11:16.248Z,97.60
2018-09-18T05:13:43.837Z,97.10
2018-09-18T05:16:10.706Z,96.50
2018-09-18T05:18:37.741Z,96.40
2018-09-18T05:21:04.787Z,96.00
2018-09-18T05:23:31.862Z,95.40
2018-09-18T05:25:58.866Z,95.00
2018-09-18T05:28:25.903Z,95.10
2018-09-18T05:30:52.995Z,96.40
2018-09-18T05:33:20.033Z,96.40
2018-09-18T05:35:47.056Z,97.50
2018-09-18T05:38:14.278Z,96.80
2018-09-18T05:40:41.313Z,97.50
2018-09-18T05:43:08.337Z,97.40
2018-09-18T05:45:35.398Z,97.00
2018-09-18T05:48:03.637Z,98.00
2018-09-18T05:53:09.980Z,95.10
2018-09-18T05:55:37.008Z,95.50
2018-09-18T05:58:04.878Z,91.90
2018-09-18T06:00:31.943Z,91.60
2018-09-18T06:02:59.866Z,90.90
2018-09-18T06:05:27.823Z,88.80
2018-09-18T06:07:54.878Z,88.60
2018-09-18T06:10:22.196Z,89.60
2018-09-18T06:12:49.792Z,88.20
2018-09-18T06:15:16.833Z,88.50
2018-09-18T06:17:43.932Z,86.30
2018-09-18T06:20:10.932Z,88.70
2018-09-18T06:22:37.976Z,86.90
2018-09-18T06:25:04.974Z,83.20
2018-09-18T06:30:00.087Z,83.20
2018-09-18T06:32:27.082Z,80.80
2018-09-18T06:34:54.092Z,81.50
2018-09-18T06:37:21.151Z,81.30
2018-09-18T06:39:48.162Z,78.50
2018-09-18T06:42:15.217Z,76.70
2018-09-18T06:44:42.263Z,76.10
2018-09-18T06:47:09.256Z,76.10
2018-09-18T06:49:36.260Z,74.70
2018-09-18T06:52:03.305Z,75.90
2018-09-18T06:56:57.378Z,75.60
2018-09-18T06:59:24.407Z,74.60
2018-09-18T07:01:51.400Z,70.90
2018-09-18T07:04:18.406Z,67.50
2018-09-18T07:06:45.431Z,66.50
2018-09-18T07:11:50.949Z,66.40
2018-09-18T07:14:17.944Z,66.80
2018-09-18T07:16:44.952Z,65.70
2018-09-18T07:19:11.985Z,68.00
2018-09-18T07:21:38.972Z,66.10
2018-09-18T07:24:05.975Z,66.10
2018-09-18T07:26:34.000Z,63.60
2018-09-18T07:29:00.997Z,62.50
2018-09-18T07:31:27.986Z,62.20
2018-09-18T07:33:55.107Z,59.20
2018-09-18T07:36:22.003Z,58.40
2018-09-18T07:38:48.992Z,59.60
2018-09-18T07:41:16.028Z,57.00
2018-09-18T07:43:43.015Z,56.10
2018-09-18T07:46:10.001Z,55.80
2018-09-18T07:48:37.020Z,58.70
2018-09-18T07:51:04.004Z,59.30
2018-09-18T07:53:31.010Z,60.60
2018-09-18T07:55:58.048Z,56.80
2018-09-18T07:58:25.054Z,55.90
2018-09-18T08:00:52.048Z,55.00
2018-09-18T08:03:19.083Z,54.50
2018-09-18T08:05:46.070Z,52.70
2018-09-18T08:08:13.078Z,49.70
2018-09-18T08:10:40.095Z,47.20
2018-09-18T08:13:07.085Z,48.60
2018-09-18T08:15:34.072Z,46.20
2018-09-18T08:18:01.117Z,44.10
2018-09-18T08:20:28.106Z,46.70
2018-09-18T08:22:55.108Z,45.50
2018-09-18T08:25:22.225Z,47.00
2018-09-18T08:30:27.655Z,50.30
2018-09-18T08:32:54.695Z,47.00
2018-09-18T08:35:21.645Z,45.00
2018-09-18T08:37:48.693Z,44.80
2018-09-18T08:40:15.690Z,43.30
2018-09-18T08:42:43.515Z,43.90
2018-09-18T08:45:10.553Z,42.20
2018-09-18T08:50:04.615Z,41.80
2018-09-18T08:52:32.513Z,38.90
2018-09-18T08:54:59.505Z,35.60
2018-09-18T08:57:26.508Z,35.90
2018-09-18T08:59:53.576Z,35.60
2018-09-18T09:02:21.377Z,34.20
2018-09-18T09:04:48.319Z,32.40
2018-09-18T09:07:15.385Z,33.40
2018-09-18T09:09:42.370Z,34.70
2018-09-18T09:12:09.365Z,35.20
2018-09-18T09:14:37.219Z,36.10
2018-09-18T09:17:05.115Z,38.20
2018-09-18T09:19:32.130Z,39.60
2018-09-18T09:21:59.219Z,37.90
2018-09-18T09:24:26.872Z,39.00
2018-09-18T09:26:53.951Z,36.20
2018-09-18T09:29:20.878Z,37.50
2018-09-18T09:31:47.867Z,35.70
2018-09-18T09:34:14.854Z,32.90
2018-09-18T09:36:41.909Z,34.60
2018-09-18T09:39:09.702Z,34.80
2018-09-18T09:41:36.700Z,32.60
2018-09-18T09:44:03.735Z,31.80
2018-09-18T09:49:11.220Z,28.40
2018-09-18T09:51:38.263Z,30.00
2018-09-18T09:54:05.203Z,30.40
2018-09-18T09:56:32.252Z,29.90
2018-09-18T09:58:59.246Z,27.30
2018-09-18T10:01:26.345Z,26.30
2018-09-18T10:03:53.376Z,26.70
2018-09-18T10:06:20.378Z,25.20
2018-09-18T10:08:47.381Z,23.10
2018-09-18T10:11:14.416Z,21.00
2018-09-18T10:13:41.403Z,20.20
2018-09-18T10:16:08.403Z,20.00
2018-09-18T10:18:35.431Z,20.80
2018-09-18T10:21:02.434Z,18.70
2018-09-18T10:23:29.424Z,21.20
2018-09-18T10:25:56.491Z,19.60
2018-09-18T10:28:24.389Z,18.30
2018-09-18T10:30:51.382Z,18.20
2018-09-18T10:33:18.402Z,18.20
2018-09-18T10:35:45.423Z,17.50
2018-09-18T10:38:12.380Z,16.30
2018-09-18T10:40:39.421Z,16.90
2018-09-18T10:43:07.370Z,17.30
2018-09-18T10:45:34.362Z,18.40
2018-09-18T10:50:28.452Z,19.00
2018-09-18T10:52:55.447Z,19.50
2018-09-18T10:55:22.516Z,19.50
2018-09-18T10:57:49.474Z,20.10
2018-09-18T11:02:43.570Z,22.70
2018-09-18T11:05:10.580Z,21.90
2018-09-18T11:10:16.119Z,21.70
2018-09-18T11:12:43.080Z,21.30
2018-09-18T11:15:10.920Z,23.50
2018-09-18T11:17:37.955Z,23.00
2018-09-18T11:20:04.944Z,23.70
2018-09-18T11:22:31.939Z,23.60
2018-09-18T11:24:59.051Z,25.00
2018-09-18T11:27:25.974Z,23.60
2018-09-18T11:29:52.958Z,26.20
2018-09-18T11:32:20.029Z,25.60
2018-09-18T11:34:47.004Z,23.60
2018-09-18T11:37:13.974Z,24.20
2018-09-18T11:39:41.107Z,23.60
2018-09-18T11:42:08.090Z,24.80
2018-09-18T11:44:35.907Z,25.60
2018-09-18T11:47:02.975Z,26.10
2018-09-18T11:49:29.962Z,23.70
2018-09-18T11:54:28.116Z,24.20
2018-09-18T11:56:55.201Z,23.40
2018-09-18T11:59:22.111Z,23.00
2018-09-18T12:01:49.993Z,23.40
2018-09-18T12:04:16.985Z,22.50
2018-09-18T12:06:43.978Z,25.30
2018-09-18T12:09:11.119Z,22.90
2018-09-18T12:11:38.031Z,22.70
2018-09-18T12:16:43.320Z,22.50
2018-09-18T12:19:10.316Z,21.20
2018-09-18T12:21:37.309Z,22.30
2018-09-18T12:24:05.236Z,21.10
2018-09-18T12:26:32.226Z,22.30
2018-09-18T12:29:00.074Z,20.00
2018-09-18T12:36:21.307Z,22.30
2018-09-18T12:38:48.353Z,22.00
2018-09-18T12:41:15.389Z,20.50
2018-09-18T12:43:42.349Z,20.50
2018-09-18T12:51:03.563Z,21.90
2018-09-18T12:53:30.631Z,22.00
2018-09-18T12:58:24.793Z,21.00
2018-09-18T13:00:51.737Z,20.00
2018-09-18T13:03:18.736Z,21.10
2018-09-18T13:05:46.565Z,20.00
2018-09-18T13:08:13.670Z,20.20
2018-09-18T13:10:40.645Z,20.40
2018-09-18T13:13:07.631Z,18.90
2018-09-18T13:15:34.673Z,19.80
2018-09-18T13:20:29.052Z,20.00
2018-09-18T13:22:56.107Z,19.70
2018-09-18T13:27:50.256Z,20.80
2018-09-18T13:30:17.244Z,21.00
2018-09-18T13:32:44.302Z,20.00
2018-09-18T13:35:11.231Z,19.80
2018-09-18T13:37:38.314Z,19.30
2018-09-18T13:42:44.810Z,20.50
2018-09-18T13:45:12.750Z,17.80
2018-09-18T13:47:39.739Z,19.00
2018-09-18T13:50:07.635Z,19.30
2018-09-18T13:52:34.585Z,19.50
2018-09-18T13:55:01.576Z,19.20
2018-09-18T13:57:28.680Z,18.70
2018-09-18T13:59:55.626Z,18.80
2018-09-18T14:04:50.612Z,19.60
2018-09-18T14:07:17.587Z,19.00
2018-09-18T14:09:44.583Z,19.00
2018-09-18T14:12:12.631Z,18.90
2018-09-18T14:14:39.647Z,19.00
2018-09-18T14:17:06.605Z,19.20
2018-09-18T14:19:33.677Z,19.20
2018-09-18T14:22:00.664Z,16.60
2018-09-18T14:24:28.484Z,17.70
2018-09-18T14:26:55.531Z,17.70
2018-09-18T14:29:22.526Z,18.80
2018-09-18T14:31:49.534Z,19.40
2018-09-18T14:34:16.578Z,18.80
2018-09-18T14:36:44.391Z,17.60
2018-09-18T14:41:38.525Z,17.70
2018-09-18T14:44:05.517Z,16.70
2018-09-18T14:48:59.637Z,15.40
2018-09-18T14:51:26.636Z,15.40
2018-09-18T14:53:53.623Z,15.60
2018-09-18T14:56:20.657Z,15.70
2018-09-18T15:03:53.249Z,17.80
2018-09-18T15:06:20.242Z,17.50
2018-09-18T15:08:47.231Z,18.10
2018-09-18T15:11:14.278Z,18.10
2018-09-18T15:13:41.325Z,20.40
2018-09-18T15:16:08.334Z,21.40
2018-09-18T15:18:35.396Z,22.40
2018-09-18T15:21:02.391Z,23.40
2018-09-18T15:23:29.396Z,25.20
2018-09-18T15:25:57.380Z,25.60
2018-09-18T15:28:24.373Z,25.10
2018-09-18T15:30:51.367Z,27.10
2018-09-18T15:33:18.433Z,27.30
2018-09-18T15:35:45.429Z,27.60
2018-09-18T15:38:12.440Z,28.30
2018-09-18T15:40:39.484Z,28.20
2018-09-18T15:43:07.443Z,29.10
2018-09-18T15:45:34.432Z,29.60
2018-09-18T15:48:01.483Z,29.60
2018-09-18T15:50:28.473Z,29.80
2018-09-18T15:52:56.305Z,31.10
2018-09-18T15:55:23.451Z,30.80
2018-09-18T15:57:51.363Z,29.70
2018-09-18T16:00:18.291Z,28.20
2018-09-18T16:02:45.342Z,27.10
2018-09-18T16:05:12.338Z,26.90
2018-09-18T16:07:39.353Z,25.80
2018-09-18T16:10:06.813Z,26.90
2018-09-18T16:12:33.421Z,26.30
2018-09-18T16:15:00.457Z,26.50
2018-09-18T16:17:27.482Z,26.60
2018-09-18T16:19:54.458Z,26.30
2018-09-18T16:24:59.971Z,26.60
2018-09-18T16:27:26.957Z,27.30
2018-09-18T16:32:21.100Z,36.60
2018-09-18T16:34:48.092Z,59.50
2018-09-18T16:39:42.226Z,76.20
2018-09-18T16:42:10.092Z,80.30
2018-09-18T16:44:37.108Z,83.70
2018-09-18T16:47:04.197Z,86.70
2018-09-18T16:49:32.169Z,89.10
2018-09-18T16:51:59.999Z,90.90
2018-09-18T16:54:27.145Z,92.00
2018-09-18T16:56:55.012Z,92.20
2018-09-18T16:59:22.043Z,88.50
2018-09-18T17:01:50.008Z,88.00
2018-09-18T17:04:17.023Z,89.20
2018-09-18T17:06:44.020Z,89.90
2018-09-18T17:09:11.103Z,88.10
2018-09-18T17:11:38.107Z,89.60
2018-09-18T17:14:05.268Z,89.50
2018-09-18T17:16:32.414Z,88.70
2018-09-18T17:18:59.318Z,88.40
2018-09-18T17:21:26.335Z,88.40
2018-09-18T17:23:53.430Z,86.20
2018-09-18T17:26:20.434Z,86.90
2018-09-18T17:28:47.605Z,88.60
2018-09-18T17:31:14.520Z,90.40
2018-09-18T17:33:41.536Z,89.60
2018-09-18T17:36:08.549Z,90.30
2018-09-18T17:38:36.549Z,89.20
2018-09-18T17:43:42.260Z,90.30
2018-09-18T17:46:10.243Z,87.00
2018-09-18T17:48:37.247Z,85.90
2018-09-18T17:51:04.328Z,88.00
2018-09-18T17:53:31.391Z,91.60
2018-09-18T17:55:58.333Z,94.00
2018-09-18T17:58:25.399Z,93.30
2018-09-18T18:00:52.405Z,93.20
2018-09-18T18:05:47.441Z,91.00
2018-09-18T18:08:14.489Z,90.80
2018-09-18T18:10:42.408Z,89.70
2018-09-18T18:13:09.371Z,89.90
2018-09-18T18:15:36.361Z,89.40
2018-09-18T18:18:04.289Z,89.60
2018-09-18T18:22:58.470Z,90.60
2018-09-18T18:25:25.474Z,90.10
2018-09-18T18:27:52.556Z,90.80
2018-09-18T18:30:19.568Z,92.40
2018-09-18T18:32:46.604Z,91.30
2018-09-18T18:35:14.537Z,91.50
2018-09-18T18:37:42.406Z,92.90
2018-09-18T18:45:15.103Z,94.80
2018-09-18T18:47:42.240Z,94.10
2018-09-18T18:50:09.199Z,93.80
2018-09-18T18:52:36.212Z,92.60
2018-09-18T18:55:03.344Z,92.30
2018-09-18T18:57:30.358Z,91.50
2018-09-18T18:59:57.436Z,93.00
2018-09-18T19:02:24.510Z,95.70
2018-09-18T19:04:51.531Z,96.90
2018-09-18T19:07:18.547Z,97.00
2018-09-18T19:09:46.600Z,97.70
2018-09-18T19:12:13.616Z,96.60
2018-09-18T19:14:40.596Z,95.80
2018-09-18T19:17:07.660Z,96.20
2018-09-18T19:19:34.690Z,96.80
2018-09-18T19:22:01.693Z,97.80
2018-09-18T19:24:28.800Z,97.10
2018-09-18T19:26:56.543Z,96.50
2018-09-18T19:29:23.538Z,96.00
2018-09-18T19:31:50.634Z,95.60
2018-09-18T19:34:17.668Z,95.70
2018-09-18T19:36:45.500Z,95.70
2018-09-18T19:39:12.644Z,95.70
2018-09-18T19:41:40.632Z,95.00
2018-09-18T19:44:07.653Z,94.60
2018-09-18T19:46:34.812Z,93.80
2018-09-18T19:49:01.885Z,93.20
2018-09-18T19:51:28.908Z,92.70
2018-09-18T19:53:55.960Z,92.70
2018-09-18T19:56:22.966Z,93.00
2018-09-18T20:01:26.812Z,92.70
2018-09-18T20:03:54.251Z,92.80
2018-09-18T20:06:22.518Z,92.50
2018-09-18T20:08:55.116Z,91.40
2018-09-18T20:11:22.851Z,92.60
2018-09-18T20:13:50.385Z,92.20
2018-09-18T20:16:17.858Z,92.10
2018-09-18T20:18:45.261Z,93.50
2018-09-18T20:23:40.915Z,92.80
2018-09-18T20:26:09.512Z,94.30
2018-09-18T20:28:37.152Z,92.90
2018-09-18T20:31:04.734Z,93.30
2018-09-18T20:33:32.379Z,92.90
2018-09-18T20:36:05.143Z,92.50
2018-09-18T20:38:32.603Z,93.70
2018-09-18T20:41:00.138Z,93.90
2018-09-18T20:43:28.607Z,93.50
2018-09-18T20:45:56.914Z,93.70
2018-09-18T20:48:25.556Z,94.70
2018-09-18T20:50:53.967Z,94.10
2018-09-18T20:53:21.478Z,93.60
2018-09-18T20:55:49.119Z,93.00
2018-09-18T21:00:53.444Z,95.20
2018-09-18T21:03:20.894Z,95.80
2018-09-18T21:08:20.798Z,96.10
2018-09-18T21:10:49.253Z,97.10
2018-09-18T21:13:17.702Z,96.90
2018-09-18T21:15:45.071Z,96.00
2018-09-18T21:18:13.444Z,96.80
2018-09-18T21:20:41.217Z,96.20
2018-09-18T21:23:12.409Z,95.30
2018-09-18T21:25:39.796Z,95.10
2018-09-18T21:28:09.271Z,95.80
2018-09-18T21:30:37.777Z,95.80
2018-09-18T21:35:44.329Z,96.40
2018-09-18T21:38:11.767Z,96.30
2018-09-18T21:40:39.853Z,97.00
2018-09-18T21:43:08.541Z,98.40
2018-09-18T21:50:42.823Z,99.90
2018-09-18T21:53:09.868Z,99.90
2018-09-18T21:55:36.921Z,99.90
2018-09-18T21:58:08.271Z,99.90
2018-09-18T22:03:14.291Z,99.90
2018-09-18T22:08:08.413Z,99.90
2018-09-18T22:10:35.481Z,99.90
2018-09-18T22:13:02.500Z,99.90
2018-09-18T22:15:29.563Z,99.90
2018-09-18T22:17:57.016Z,99.90
2018-09-18T22:20:24.755Z,99.90
2018-09-18T22:22:52.631Z,99.90
2018-09-18T22:25:19.794Z,99.90
2018-09-18T22:27:46.866Z,99.90
2018-09-18T22:30:13.990Z,99.90
2018-09-18T22:32:41.075Z,99.90
2018-09-18T22:35:08.129Z,99.90
2018-09-18T22:37:35.180Z,99.90
2018-09-18T22:40:02.318Z,99.90
2018-09-18T22:42:29.346Z,99.90
2018-09-18T22:44:57.225Z,99.90
2018-09-18T22:47:24.303Z,99.90
2018-09-18T22:49:51.348Z,99.90
2018-09-18T22:54:45.565Z,99.90
2018-09-18T22:57:14.193Z,99.90
2018-09-18T22:59:41.200Z,99.90
2018-09-18T23:02:08.296Z,99.90
2018-09-18T23:04:35.347Z,99.90
2018-09-18T23:07:02.995Z,99.90
2018-09-18T23:09:30.099Z,99.90
2018-09-18T23:11:57.156Z,99.90
2018-09-18T23:14:24.193Z,99.90
2018-09-18T23:19:29.789Z,99.90
2018-09-18T23:21:56.863Z,99.90
2018-09-18T23:26:51.012Z,99.90
2018-09-18T23:29:18.161Z,99.90
2018-09-18T23:31:45.726Z,99.90
2018-09-18T23:34:12.761Z,99.90
2018-09-18T23:36:39.834Z,99.90
2018-09-18T23:39:07.693Z,99.90
2018-09-18T23:41:34.721Z,99.90
2018-09-18T23:44:01.824Z,99.90
2018-09-18T23:51:23.165Z,99.90
2018-09-18T23:53:51.227Z,99.90
2018-09-18T23:56:18.383Z,99.90
2018-09-18T23:58:46.411Z,99.90
